Terminal Aerodrome Forecast
Issued by NWS

Home | Current Version | Previous Version | Text Only | Print | Product List | Glossary On
Versions: 1 2 3 4 5 6 7 8 9 10 11 12 13 14 15 16 17 18 19 20 21
000
FTUS42 KMHX 191120
TAFPGV
TAF
KPGV 191120Z 1912/2012 11004KT 3/4SM BR OVC002
     FM191300 08010KT P6SM VCSH SCT020 BKN050
     FM191700 14010KT 4SM -SHRA OVC025
     FM192200 14012KT 3SM SHRA OVC007
     FM200600 20008KT 5SM -SHRA OVC005
      AMD LTD TO CLD VIS AND WIND=

USA.gov is the U.S. government's official web portal to all federal, state and local government web resources and services.